Time;durP1;ratioP1;P1;durP2;ratioP2;P2;SDS_P1;SDS_P2;PMS_P1;PMS_P2;Temp;Humidity;BMP_temperature;BMP_pressure;BME280_temperature;BME280_humidity;BME280_pressure;Samples;Min_cycle;Max_cycle;Signal;HPM_P1;HPM_P2
2021/08/02 00:00:09;;;;;;;5.03;1.90;;;;;;;28.19;40.09;98984.94;4500512;31;34536;-65
2021/08/02 00:02:48;;;;;;;3.70;1.80;;;;;;;28.18;40.00;98982.50;4499772;31;33146;-66
2021/08/02 00:05:17;;;;;;;3.47;1.65;;;;;;;28.17;40.13;98991.84;4500352;31;34004;-66
2021/08/02 00:07:46;;;;;;;2.83;1.58;;;;;;;28.15;40.14;98986.59;4499143;31;34049;-66
2021/08/02 00:10:14;;;;;;;2.97;1.60;;;;;;;28.15;40.08;98997.56;4486332;31;33489;-65
2021/08/02 00:12:53;;;;;;;3.73;1.70;;;;;;;28.15;39.94;98989.34;4499342;31;33404;-65
2021/08/02 00:15:20;;;;;;;2.85;1.67;;;;;;;28.16;39.99;98995.66;4499167;31;34104;-65
2021/08/02 00:17:48;;;;;;;4.53;1.70;;;;;;;28.15;40.14;98997.56;4500291;31;33981;-65
2021/08/02 00:20:22;;;;;;;3.62;1.90;;;;;;;28.15;39.94;98994.84;4499177;31;33960;-65
2021/08/02 00:22:49;;;;;;;5.50;1.52;;;;;;;28.15;39.94;99002.25;4500517;31;34239;-64
2021/08/02 00:25:17;;;;;;;7.25;1.45;;;;;;;28.15;39.81;98996.75;4486239;31;34082;-64
2021/08/02 00:27:44;;;;;;;3.00;1.52;;;;;;;28.15;40.06;98996.75;4500095;31;34098;-64
2021/08/02 00:30:12;;;;;;;5.03;1.75;;;;;;;28.14;40.03;99003.34;4485982;31;34227;-65
2021/08/02 00:32:39;;;;;;;3.25;1.70;;;;;;;28.14;39.62;98997.88;4500122;31;33751;-66
2021/08/02 00:35:08;;;;;;;3.00;1.77;;;;;;;28.14;39.78;98992.38;4484453;32;33867;-64
2021/08/02 00:37:45;;;;;;;3.05;1.70;;;;;;;28.13;39.68;98996.22;4484615;32;33971;-65
2021/08/02 00:40:47;;;;;;;4.57;1.70;;;;;;;28.11;39.74;99001.97;4484829;32;33492;-65
2021/08/02 00:43:42;;;;;;;5.12;1.95;;;;;;;28.13;39.87;99004.44;4483451;32;34177;-64
2021/08/02 00:46:11;;;;;;;5.45;1.73;;;;;;;28.10;39.86;99000.34;4483356;32;34243;-64
2021/08/02 00:48:48;;;;;;;3.65;1.70;;;;;;;28.07;39.78;99006.38;4470621;32;34105;-65
2021/08/02 00:51:16;;;;;;;6.43;1.77;;;;;;;28.08;39.77;99008.03;4478771;32;34678;-65
2021/08/02 00:53:46;;;;;;;4.68;1.90;;;;;;;28.07;39.58;99006.38;4483247;32;33874;-64
2021/08/02 00:56:14;;;;;;;3.67;1.77;;;;;;;28.06;39.73;99012.13;4483272;32;34718;-66
2021/08/02 00:58:42;;;;;;;5.70;1.85;;;;;;;28.06;39.68;99007.47;4484570;32;33991;-65
2021/08/02 01:01:09;;;;;;;3.47;1.70;;;;;;;28.05;39.84;99005.81;4470257;32;32429;-65
2021/08/02 01:03:38;;;;;;;3.55;1.85;;;;;;;28.04;39.54;99006.12;4483398;32;33413;-67
2021/08/02 01:06:07;;;;;;;4.65;1.60;;;;;;;28.03;39.51;99001.72;4470585;32;33874;-66
2021/08/02 01:08:36;;;;;;;2.90;1.60;;;;;;;28.02;39.45;98991.84;4480221;32;34088;-65
2021/08/02 01:11:06;;;;;;;2.70;1.67;;;;;;;28.00;39.54;98996.78;4483034;32;34004;-65
2021/08/02 01:13:35;;;;;;;2.62;1.80;;;;;;;28.00;39.49;99008.56;4484242;32;34243;-67
2021/08/02 01:16:04;;;;;;;2.90;1.50;;;;;;;28.00;39.38;99000.34;4484296;32;34038;-66
2021/08/02 01:18:33;;;;;;;3.75;1.73;;;;;;;27.97;39.24;99000.88;4482935;32;33929;-67
2021/08/02 01:21:07;;;;;;;4.70;1.92;;;;;;;27.99;39.22;99006.12;4470418;32;34126;-65
2021/08/02 01:23:37;;;;;;;2.35;1.58;;;;;;;27.98;39.13;99005.31;4483392;31;33737;-66
2021/08/02 01:26:04;;;;;;;2.85;1.75;;;;;;;27.99;38.85;99006.12;4499909;31;33632;-66
2021/08/02 01:28:32;;;;;;;3.35;1.65;;;;;;;27.98;38.86;99005.31;4494791;31;34191;-68
2021/08/02 01:31:11;;;;;;;3.35;1.55;;;;;;;27.96;38.89;99000.06;4484032;32;33876;-65
2021/08/02 01:33:39;;;;;;;3.28;1.70;;;;;;;27.92;38.83;98992.69;4483313;32;33141;-65
2021/08/02 01:36:08;;;;;;;4.93;1.70;;;;;;;27.87;38.92;98989.94;4483151;31;34607;-65
2021/08/02 01:38:36;;;;;;;2.85;1.58;;;;;;;27.85;39.14;98998.44;4481465;32;80888;-65
2021/08/02 01:41:06;;;;;;;3.53;1.60;;;;;;;27.80;39.43;98992.97;4487573;31;33978;-65
2021/08/02 01:43:36;;;;;;;4.00;1.77;;;;;;;27.78;39.51;99003.37;4499842;31;34609;-65
2021/08/02 01:46:11;;;;;;;3.50;2.00;;;;;;;27.81;39.38;99010.25;4500083;31;33857;-65
2021/08/02 01:49:04;;;;;;;3.30;1.73;;;;;;;27.82;39.36;99031.06;4498573;31;35121;-65
2021/08/02 01:51:44;;;;;;;7.00;1.58;;;;;;;27.78;39.52;99021.75;4499847;31;33854;-65
2021/08/02 01:54:45;;;;;;;3.35;1.55;;;;;;;27.77;39.55;99034.63;4485769;31;33172;-65
2021/08/02 01:57:19;;;;;;;3.42;1.60;;;;;;;27.76;39.49;99038.47;4499927;31;33889;-64
2021/08/02 01:59:51;;;;;;;4.90;1.80;;;;;;;27.74;39.72;99045.31;4498011;31;33983;-66
2021/08/02 02:02:19;;;;;;;3.70;1.67;;;;;;;27.73;39.49;99051.91;4485648;31;34008;-66
2021/08/02 02:05:06;;;;;;;3.83;1.48;;;;;;;27.74;39.37;99051.62;4485344;31;33287;-65
2021/08/02 02:07:43;;;;;;;2.83;1.70;;;;;;;27.78;39.12;99058.19;4499878;31;33927;-65
2021/08/02 02:10:14;;;;;;;4.65;1.80;;;;;;;27.75;39.51;99060.69;4486168;31;33704;-66
2021/08/02 02:12:42;;;;;;;5.53;1.60;;;;;;;27.73;39.44;99062.87;4485276;31;34051;-65
2021/08/02 02:15:10;;;;;;;5.43;2.03;;;;;;;27.70;39.46;99065.03;4497114;31;33405;-66
2021/08/02 02:17:40;;;;;;;3.95;1.80;;;;;;;27.71;39.32;99072.19;4485837;31;33975;-66
2021/08/02 02:20:09;;;;;;;3.85;1.83;;;;;;;27.70;39.32;99070.50;4485591;31;34984;-65
2021/08/02 02:22:37;;;;;;;2.97;1.83;;;;;;;27.71;39.21;99069.44;4499528;31;33922;-65
2021/08/02 02:25:07;;;;;;;3.67;1.67;;;;;;;27.69;39.20;99068.84;4485328;31;33354;-65
2021/08/02 02:27:35;;;;;;;5.18;1.70;;;;;;;27.70;39.19;99067.78;4500277;31;33641;-65
2021/08/02 02:30:05;;;;;;;4.78;1.85;;;;;;;27.70;39.36;99070.50;4499983;31;34790;-65
2021/08/02 02:32:34;;;;;;;3.70;1.70;;;;;;;27.70;39.17;99076.00;4501409;31;34020;-66
2021/08/02 02:35:03;;;;;;;5.60;2.10;;;;;;;27.69;39.33;99076.25;4487372;31;33088;-66
2021/08/02 02:37:34;;;;;;;4.97;2.10;;;;;;;27.72;39.08;99073.00;4500339;31;34730;-65
2021/08/02 02:40:03;;;;;;;6.47;1.90;;;;;;;27.70;39.14;99078.75;4499852;31;34205;-64
2021/08/02 02:42:30;;;;;;;5.62;2.08;;;;;;;27.70;39.16;99091.63;4500123;31;33669;-65
2021/08/02 02:44:59;;;;;;;4.90;1.62;;;;;;;27.69;39.01;99090.78;4500312;31;33408;-65
2021/08/02 02:47:27;;;;;;;3.95;2.28;;;;;;;27.70;38.99;99097.09;4487102;31;33908;-65
2021/08/02 02:49:55;;;;;;;3.25;2.05;;;;;;;27.69;39.09;99101.72;4499372;31;34846;-65
2021/08/02 02:52:23;;;;;;;4.07;1.87;;;;;;;27.69;39.02;99106.41;4501171;31;33547;-65
2021/08/02 02:54:50;;;;;;;2.45;1.52;;;;;;;27.68;38.95;99110.25;4500030;31;32707;-66
2021/08/02 02:57:18;;;;;;;6.05;2.10;;;;;;;27.68;39.03;99115.72;4487087;31;33834;-65
2021/08/02 02:59:46;;;;;;;6.45;1.85;;;;;;;27.68;38.95;99122.03;4501174;31;34059;-65
2021/08/02 03:02:14;;;;;;;3.62;1.80;;;;;;;27.66;39.08;99124.22;4499888;31;34101;-65
2021/08/02 03:04:44;;;;;;;5.62;2.05;;;;;;;27.65;39.04;99132.69;4499977;31;33203;-64
2021/08/02 03:07:12;;;;;;;3.08;1.80;;;;;;;27.64;38.99;99137.34;4499445;31;33838;-64
2021/08/02 03:09:41;;;;;;;3.92;1.65;;;;;;;27.67;39.02;99146.97;4486964;31;34080;-65
2021/08/02 03:12:09;;;;;;;5.00;1.90;;;;;;;27.66;38.95;99156.28;4487005;31;34575;-65
2021/08/02 03:14:37;;;;;;;4.40;2.05;;;;;;;27.63;39.13;99168.59;4500991;31;33430;-65
2021/08/02 03:17:06;;;;;;;5.57;2.00;;;;;;;27.63;39.14;99173.25;4486774;31;34726;-65
2021/08/02 03:19:35;;;;;;;4.97;1.73;;;;;;;27.64;39.07;99181.22;4486706;31;34675;-66
2021/08/02 03:22:12;;;;;;;3.10;1.83;;;;;;;27.62;39.17;99163.41;4499812;31;33751;-65
2021/08/02 03:24:43;;;;;;;6.03;1.90;;;;;;;27.62;39.28;99163.41;4487002;31;34185;-65
2021/08/02 03:27:20;;;;;;;5.85;1.87;;;;;;;27.61;39.39;99173.53;4486763;31;33973;-65
2021/08/02 03:29:47;;;;;;;3.83;1.80;;;;;;;27.61;39.34;99151.62;4487616;31;33957;-65
2021/08/02 03:32:16;;;;;;;4.12;1.92;;;;;;;27.61;39.40;99148.06;4471065;32;34511;-65
2021/08/02 03:34:46;;;;;;;3.55;1.92;;;;;;;27.58;39.26;99149.41;4483876;32;34071;-66
2021/08/02 03:37:14;;;;;;;4.28;1.77;;;;;;;27.58;39.40;99170.50;4484017;32;33682;-65
2021/08/02 03:39:42;;;;;;;4.80;2.20;;;;;;;27.59;39.42;99178.44;4471743;31;35447;-65
2021/08/02 03:42:10;;;;;;;3.95;2.10;;;;;;;27.58;39.36;99195.19;4501010;31;34598;-65
2021/08/02 03:44:37;;;;;;;4.87;1.83;;;;;;;27.58;39.42;99195.19;4485980;31;33454;-64
2021/08/02 03:47:05;;;;;;;4.95;2.25;;;;;;;27.57;39.24;99197.09;4499588;31;33867;-65
2021/08/02 03:49:32;;;;;;;4.03;1.77;;;;;;;27.57;39.35;99202.56;4500812;31;34101;-65
2021/08/02 03:52:01;;;;;;;4.30;1.87;;;;;;;27.56;39.40;99206.41;4499213;31;34058;-65
2021/08/02 03:54:29;;;;;;;3.12;1.80;;;;;;;27.57;39.15;99205.31;4501051;31;33723;-64
2021/08/02 03:56:57;;;;;;;5.87;2.10;;;;;;;27.58;39.11;99217.09;4499275;31;33885;-65
2021/08/02 03:59:25;;;;;;;4.20;2.00;;;;;;;27.56;39.21;99222.84;4486338;31;33980;-65
2021/08/02 04:01:53;;;;;;;6.07;1.90;;;;;;;27.59;39.12;99226.97;4500630;31;34337;-65
2021/08/02 04:04:21;;;;;;;4.18;1.90;;;;;;;27.58;39.10;99233.53;4500980;31;34297;-64
2021/08/02 04:06:48;;;;;;;3.35;1.75;;;;;;;27.59;39.02;99233.25;4500455;31;34649;-65
2021/08/02 04:09:16;;;;;;;4.45;1.95;;;;;;;27.56;39.23;99239.31;4500562;31;34149;-65
2021/08/02 04:11:45;;;;;;;3.90;1.90;;;;;;;27.53;39.33;99242.56;4500513;31;34679;-65
2021/08/02 04:14:13;;;;;;;3.35;1.77;;;;;;;27.51;39.39;99242.00;4500600;31;33451;-65
2021/08/02 04:16:41;;;;;;;4.93;2.00;;;;;;;27.51;39.44;99244.72;4500594;31;33867;-66
2021/08/02 04:19:09;;;;;;;6.40;1.98;;;;;;;27.52;39.30;99248.31;4500519;31;34836;-65
2021/08/02 04:21:57;;;;;;;4.03;1.80;;;;;;;27.52;39.18;99245.59;4500327;31;34121;-64
2021/08/02 04:24:26;;;;;;;6.28;1.95;;;;;;;27.52;39.24;99246.41;4500564;31;33092;-65
2021/08/02 04:26:54;;;;;;;2.90;1.70;;;;;;;27.48;39.46;99253.50;4500402;31;34065;-65
2021/08/02 04:29:21;;;;;;;5.40;2.33;;;;;;;27.48;39.40;99264.47;4499220;31;33802;-65
2021/08/02 04:31:49;;;;;;;4.40;1.95;;;;;;;27.49;39.40;99271.59;4500359;31;33849;-65
2021/08/02 04:34:17;;;;;;;5.70;2.33;;;;;;;27.48;39.40;99272.69;4499262;31;34008;-65
2021/08/02 04:36:44;;;;;;;4.25;1.90;;;;;;;27.49;39.34;99279.81;4500422;31;34246;-66
2021/08/02 04:39:12;;;;;;;5.97;1.98;;;;;;;27.49;39.34;99276.25;4500778;31;34529;-65
2021/08/02 04:41:39;;;;;;;5.43;2.37;;;;;;;27.39;39.60;99277.03;4500167;31;34728;-67
2021/08/02 04:44:07;;;;;;;3.65;1.95;;;;;;;27.41;39.63;99272.91;4499256;31;34626;-68
2021/08/02 04:46:34;;;;;;;3.20;1.80;;;;;;;27.39;39.68;99261.41;4500299;31;33981;-67
2021/08/02 04:49:02;;;;;;;4.00;2.12;;;;;;;27.41;39.71;99270.16;4500005;31;33749;-66
2021/08/02 04:51:29;;;;;;;4.60;2.10;;;;;;;27.42;39.81;99262.81;4500620;31;34280;-67
2021/08/02 04:53:57;;;;;;;5.97;1.90;;;;;;;27.39;39.90;99264.13;4500385;31;33359;-67
2021/08/02 04:56:24;;;;;;;3.92;2.00;;;;;;;27.41;39.84;99275.66;4500293;31;33759;-67
2021/08/02 04:58:52;;;;;;;3.78;2.05;;;;;;;27.41;39.88;99275.66;4500292;31;34195;-67
2021/08/02 05:01:20;;;;;;;6.30;2.10;;;;;;;27.41;39.87;99270.16;4500308;31;34602;-67
2021/08/02 05:03:47;;;;;;;4.15;2.33;;;;;;;27.39;40.02;99266.88;4500427;31;34450;-69
2021/08/02 05:06:15;;;;;;;3.47;1.92;;;;;;;27.39;40.07;99277.03;4500224;31;34589;-66
2021/08/02 05:08:43;;;;;;;4.12;2.08;;;;;;;27.40;39.98;99278.66;4500509;31;34103;-65
2021/08/02 05:11:10;;;;;;;4.95;2.35;;;;;;;27.38;40.12;99280.84;4499091;31;33834;-64
2021/08/02 05:13:38;;;;;;;5.55;2.03;;;;;;;27.40;40.14;99284.16;4500210;31;33716;-66
2021/08/02 05:16:06;;;;;;;4.62;2.12;;;;;;;27.40;40.04;99282.22;4500261;31;33888;-65
2021/08/02 05:18:34;;;;;;;4.00;2.00;;;;;;;27.39;40.10;99288.81;4500165;31;34072;-65
2021/08/02 05:21:01;;;;;;;5.57;2.42;;;;;;;27.40;40.06;99286.88;4500110;31;33863;-65
2021/08/02 05:23:29;;;;;;;4.32;2.08;;;;;;;27.39;40.17;99277.84;4500077;31;33025;-65
2021/08/02 05:25:56;;;;;;;5.18;2.45;;;;;;;27.40;40.03;99286.88;4500189;31;33633;-65
2021/08/02 05:28:24;;;;;;;4.70;2.17;;;;;;;27.38;40.09;99278.13;4496394;31;33377;-65
2021/08/02 05:30:51;;;;;;;4.87;1.92;;;;;;;27.37;40.04;99280.03;4499871;31;35004;-65
2021/08/02 05:33:23;;;;;;;7.43;2.40;;;;;;;27.36;40.08;99278.38;4500023;31;34385;-65
2021/08/02 05:35:51;;;;;;;3.80;2.00;;;;;;;27.33;40.28;99278.09;4500009;31;33867;-65
2021/08/02 05:38:19;;;;;;;4.05;1.92;;;;;;;27.35;40.14;99273.97;4485009;31;32887;-66
2021/08/02 05:40:46;;;;;;;4.15;1.67;;;;;;;27.34;40.23;99282.47;4499796;31;34004;-65
2021/08/02 05:43:14;;;;;;;6.43;2.17;;;;;;;27.33;40.20;99286.31;4500000;31;34234;-66
2021/08/02 05:45:41;;;;;;;3.08;2.03;;;;;;;27.31;40.41;99291.22;4500137;31;33272;-65
2021/08/02 05:48:09;;;;;;;4.37;2.33;;;;;;;27.33;40.19;99294.53;4499973;31;35083;-66
2021/08/02 05:50:36;;;;;;;4.43;2.20;;;;;;;27.32;40.18;99288.19;4499805;31;35057;-65
2021/08/02 05:53:04;;;;;;;4.60;2.05;;;;;;;27.32;40.47;99301.06;4485328;31;33384;-65
2021/08/02 05:55:31;;;;;;;3.92;1.83;;;;;;;27.33;40.26;99297.25;4499843;31;33905;-65
2021/08/02 05:57:59;;;;;;;4.57;2.12;;;;;;;27.33;40.33;99295.34;4499810;31;33615;-66
2021/08/02 06:00:26;;;;;;;5.35;2.20;;;;;;;27.32;40.23;99293.66;4484316;31;33646;-65
2021/08/02 06:02:54;;;;;;;4.68;2.20;;;;;;;27.30;40.37;99295.88;4499741;31;34377;-65
2021/08/02 06:05:22;;;;;;;3.42;1.77;;;;;;;27.30;40.63;99306.81;4499552;31;33935;-65
2021/08/02 06:07:49;;;;;;;4.22;2.17;;;;;;;27.31;40.64;99304.91;4499424;31;34012;-66
2021/08/02 06:10:17;;;;;;;5.80;2.00;;;;;;;27.31;40.75;99302.16;4499439;31;33854;-67
2021/08/02 06:12:44;;;;;;;4.05;1.98;;;;;;;27.31;40.73;99313.94;4499427;31;34248;-67
2021/08/02 06:15:15;;;;;;;4.82;1.98;;;;;;;27.33;40.73;99311.78;4499417;31;33917;-67
2021/08/02 06:17:43;;;;;;;5.37;1.80;;;;;;;27.35;40.79;99306.03;4499260;31;33979;-67
2021/08/02 06:20:11;;;;;;;3.75;1.85;;;;;;;27.37;40.77;99309.31;4499264;31;34087;-66
2021/08/02 06:22:38;;;;;;;2.87;1.92;;;;;;;27.38;40.75;99311.00;4485276;31;33219;-65
2021/08/02 06:25:07;;;;;;;4.72;1.95;;;;;;;27.39;40.89;99315.37;4485310;31;33957;-65
2021/08/02 06:27:34;;;;;;;4.00;1.85;;;;;;;27.41;40.88;99332.34;4485166;31;34975;-66
2021/08/02 06:30:02;;;;;;;6.72;1.98;;;;;;;27.42;40.83;99331.28;4499097;31;33868;-67
2021/08/02 06:32:30;;;;;;;3.22;1.95;;;;;;;27.43;40.82;99336.50;4498083;31;33391;-67
2021/08/02 06:34:57;;;;;;;4.28;2.00;;;;;;;27.45;40.89;99341.72;4499098;31;34011;-67
2021/08/02 06:37:27;;;;;;;3.55;1.77;;;;;;;27.48;40.81;99343.09;4498876;31;34701;-67
2021/08/02 06:39:54;;;;;;;3.97;2.12;;;;;;;27.48;40.78;99343.94;4499200;31;33944;-64
2021/08/02 06:42:22;;;;;;;4.20;1.92;;;;;;;27.50;40.66;99347.22;4499045;31;34216;-66
2021/08/02 06:44:49;;;;;;;4.97;2.10;;;;;;;27.50;40.83;99339.00;4499064;31;33761;-66
2021/08/02 06:47:18;;;;;;;5.57;2.05;;;;;;;27.52;40.80;99356.00;4499234;31;33994;-66
2021/08/02 06:49:47;;;;;;;5.55;2.33;;;;;;;27.54;40.90;99353.00;4498893;31;34018;-65
2021/08/02 06:52:14;;;;;;;7.32;2.47;;;;;;;27.54;40.60;99356.56;4498894;31;34104;-64
2021/08/02 06:54:42;;;;;;;4.20;1.77;;;;;;;27.55;40.56;99358.22;4498964;31;34626;-65
2021/08/02 06:57:09;;;;;;;3.70;1.87;;;;;;;27.56;40.59;99370.84;4499027;31;34826;-64
2021/08/02 06:59:37;;;;;;;4.93;2.40;;;;;;;27.57;40.55;99377.16;4498866;31;34040;-63
2021/08/02 07:02:05;;;;;;;10.25;2.42;;;;;;;27.57;40.41;99379.88;4499086;31;33647;-64
2021/08/02 07:04:32;;;;;;;3.55;1.90;;;;;;;27.57;40.39;99377.16;4498572;31;34041;-64
2021/08/02 07:07:00;;;;;;;11.60;2.08;;;;;;;27.58;40.34;99373.31;4498720;31;34096;-63
2021/08/02 07:09:28;;;;;;;3.75;1.85;;;;;;;27.61;40.43;99370.88;4497359;31;35529;-63
2021/08/02 07:11:55;;;;;;;5.50;2.00;;;;;;;27.63;40.42;99373.34;4499135;31;33236;-64
2021/08/02 07:14:22;;;;;;;4.00;2.00;;;;;;;27.66;40.44;99378.31;4500859;31;33795;-64
2021/08/02 07:16:50;;;;;;;9.10;2.10;;;;;;;27.68;40.44;99368.72;4500948;31;35014;-63
2021/08/02 07:19:18;;;;;;;5.40;1.95;;;;;;;27.69;40.47;99364.88;4500828;31;33861;-62
2021/08/02 07:21:45;;;;;;;4.37;1.62;;;;;;;27.73;40.46;99367.13;4501264;31;34251;-64
2021/08/02 07:24:13;;;;;;;2.72;1.80;;;;;;;27.75;40.47;99370.44;4500921;31;34025;-63
2021/08/02 07:26:40;;;;;;;4.07;2.00;;;;;;;27.77;40.51;99369.06;4500819;31;33437;-62
2021/08/02 07:29:08;;;;;;;4.10;1.77;;;;;;;27.79;40.45;99357.81;4500892;31;35146;-63
2021/08/02 07:31:36;;;;;;;4.60;1.92;;;;;;;27.81;40.42;99361.97;4500841;31;34285;-63
2021/08/02 07:34:03;;;;;;;4.40;1.90;;;;;;;27.83;40.48;99365.25;4500543;31;34159;-64
2021/08/02 07:36:31;;;;;;;2.62;1.70;;;;;;;27.85;40.53;99367.75;4500765;31;34839;-63
2021/08/02 07:38:59;;;;;;;4.28;1.90;;;;;;;27.87;40.54;99362.81;4500898;31;33649;-63
2021/08/02 07:41:26;;;;;;;4.03;2.25;;;;;;;27.88;40.55;99356.22;4500698;31;33461;-63
2021/08/02 07:43:54;;;;;;;2.90;1.62;;;;;;;27.90;40.54;99359.53;4496472;31;33998;-63
2021/08/02 07:46:22;;;;;;;3.95;1.87;;;;;;;27.91;40.54;99366.66;4495654;31;34772;-63
2021/08/02 07:48:52;;;;;;;3.33;2.00;;;;;;;27.92;40.59;99371.88;4495470;31;33757;-64
2021/08/02 07:51:19;;;;;;;3.58;1.90;;;;;;;27.94;40.61;99358.75;4496436;31;33385;-64
2021/08/02 07:53:47;;;;;;;3.78;1.87;;;;;;;27.97;40.58;99360.09;4495138;31;34279;-63
2021/08/02 07:56:15;;;;;;;3.05;1.67;;;;;;;27.96;40.57;99362.03;4495092;31;34891;-64
2021/08/02 07:58:42;;;;;;;3.37;1.92;;;;;;;27.99;40.59;99373.56;4484517;31;35006;-63
2021/08/02 08:01:10;;;;;;;4.10;2.03;;;;;;;28.00;40.58;99372.47;4495283;31;34109;-62
2021/08/02 08:03:38;;;;;;;3.42;1.80;;;;;;;28.01;40.60;99382.34;4494490;31;33687;-63
2021/08/02 08:06:06;;;;;;;4.32;1.70;;;;;;;28.02;40.63;99376.59;4495344;31;34244;-63
2021/08/02 08:08:34;;;;;;;2.70;1.70;;;;;;;28.04;40.62;99379.06;4495564;31;34620;-63
2021/08/02 08:11:01;;;;;;;4.15;1.73;;;;;;;28.05;40.64;99389.78;4495263;31;34429;-62
2021/08/02 08:13:29;;;;;;;3.60;1.70;;;;;;;28.06;40.63;99390.59;4494937;31;34068;-63
2021/08/02 08:15:56;;;;;;;2.47;1.50;;;;;;;28.07;40.66;99393.09;4495207;31;34177;-64
2021/08/02 08:18:27;;;;;;;3.40;1.67;;;;;;;28.09;40.68;99398.28;4495410;31;33536;-64
2021/08/02 08:20:54;;;;;;;3.97;1.95;;;;;;;28.09;40.67;99390.06;4495523;31;33547;-64
2021/08/02 08:23:21;;;;;;;4.68;1.80;;;;;;;28.09;40.66;99382.66;4494599;31;33995;-64
2021/08/02 08:25:49;;;;;;;2.58;1.70;;;;;;;28.10;40.68;99394.44;4486555;31;33879;-67
2021/08/02 08:28:16;;;;;;;8.02;2.35;;;;;;;28.11;40.68;99398.84;4494307;31;33577;-71
2021/08/02 08:30:44;;;;;;;4.50;2.33;;;;;;;28.11;40.71;99387.88;4494777;31;32757;-69
2021/08/02 08:33:12;;;;;;;6.68;2.47;;;;;;;28.11;40.77;99393.34;4494950;31;33593;-70
2021/08/02 08:35:39;;;;;;;6.18;2.33;;;;;;;28.12;40.71;99401.34;4487759;31;34139;-70
2021/08/02 08:38:07;;;;;;;5.68;2.28;;;;;;;28.12;40.75;99404.06;4494452;31;33969;-70
2021/08/02 08:40:35;;;;;;;6.65;2.30;;;;;;;28.11;40.78;99402.41;4499889;31;33620;-65
2021/08/02 08:43:03;;;;;;;7.18;2.10;;;;;;;28.11;40.76;99405.16;4500368;31;34766;-69
2021/08/02 08:45:31;;;;;;;8.95;2.45;;;;;;;28.12;40.69;99398.59;4499719;31;34078;-69
2021/08/02 08:47:58;;;;;;;4.75;1.92;;;;;;;28.13;40.67;99391.19;4499092;31;33787;-67
2021/08/02 08:50:26;;;;;;;9.02;2.20;;;;;;;28.14;40.60;99398.31;4499514;31;34553;-66
2021/08/02 08:52:55;;;;;;;4.25;1.83;;;;;;;28.14;40.54;99399.13;4499719;31;33884;-70
2021/08/02 08:55:23;;;;;;;;;;;;;;;28.13;40.51;99394.75;4483872;32;34829;-70
2021/08/02 08:57:50;;;;;;;3.37;1.60;;;;;;;28.26;40.19;99407.16;4484648;32;34902;-70
2021/08/02 09:00:22;;;;;;;3.03;1.92;;;;;;;28.19;40.37;99406.56;4483156;32;34173;-68
2021/08/02 09:02:51;;;;;;;5.35;1.85;;;;;;;28.17;40.39;99408.75;4484398;32;34859;-69
2021/08/02 09:05:19;;;;;;;6.12;1.80;;;;;;;28.16;40.40;99413.41;4482900;31;33726;-67
2021/08/02 09:07:46;;;;;;;5.37;1.75;;;;;;;28.17;40.38;99415.06;4482981;32;33915;-69
2021/08/02 09:10:18;;;;;;;3.08;1.85;;;;;;;28.17;40.25;99420.56;4484679;32;33021;-66
2021/08/02 09:12:57;;;;;;;6.80;2.20;;;;;;;28.18;40.25;99419.47;4483075;32;34731;-69
2021/08/02 09:15:44;;;;;;;5.40;1.90;;;;;;;28.20;40.18;99420.00;4483009;32;33973;-70
2021/08/02 09:18:20;;;;;;;5.40;2.28;;;;;;;28.22;40.13;99425.25;4482999;32;34048;-67
2021/08/02 09:21:00;;;;;;;3.50;1.95;;;;;;;28.20;40.15;99425.50;4465048;31;33463;-68
2021/08/02 09:23:28;;;;;;;5.00;2.00;;;;;;;28.22;40.15;99431.56;4501497;31;34015;-70
2021/08/02 09:25:59;;;;;;;4.75;1.90;;;;;;;28.21;40.14;99434.53;4515942;31;33704;-70
2021/08/02 09:28:27;;;;;;;4.00;1.77;;;;;;;28.22;40.11;99430.72;4515652;31;33991;-66
2021/08/02 09:30:55;;;;;;;5.57;1.85;;;;;;;28.22;40.09;99427.97;4515596;31;33446;-69
2021/08/02 09:33:24;;;;;;;4.80;1.80;;;;;;;28.22;40.08;99439.78;4515580;31;34399;-67
2021/08/02 09:35:51;;;;;;;8.23;1.90;;;;;;;28.24;40.09;99442.25;4500012;31;33967;-67
2021/08/02 09:38:22;;;;;;;6.32;2.10;;;;;;;28.24;40.08;99445.00;4492781;31;34106;-67
2021/08/02 09:40:51;;;;;;;6.53;2.20;;;;;;;28.23;40.13;99444.16;4499600;31;33257;-68
2021/08/02 09:43:23;;;;;;;6.43;2.00;;;;;;;28.25;40.13;99448.56;4499667;31;33867;-69
2021/08/02 09:46:08;;;;;;;5.50;1.73;;;;;;;28.27;40.17;99451.87;4499746;31;34663;-69
2021/08/02 09:48:42;;;;;;;3.90;1.85;;;;;;;28.29;40.21;99452.41;4485051;31;32099;-66
2021/08/02 09:51:10;;;;;;;5.05;1.90;;;;;;;28.28;40.37;99448.03;4485352;31;33319;-65
2021/08/02 09:53:46;;;;;;;4.78;1.85;;;;;;;28.29;40.45;99449.69;4485338;31;32592;-69
2021/08/02 09:56:16;;;;;;;5.37;1.87;;;;;;;28.30;40.46;99451.31;4485317;31;34949;-70
2021/08/02 09:59:08;;;;;;;5.57;2.10;;;;;;;28.29;40.51;99444.19;4499956;31;33912;-67
2021/08/02 10:01:35;;;;;;;3.00;1.65;;;;;;;28.30;40.53;99434.84;4499701;31;34199;-72
2021/08/02 10:04:24;;;;;;;5.00;1.90;;;;;;;28.30;40.56;99435.69;4499638;31;33628;-72
2021/08/02 10:06:53;;;;;;;4.90;1.77;;;;;;;28.30;40.59;99435.69;4498873;31;35230;-72
2021/08/02 10:09:21;;;;;;;6.12;1.90;;;;;;;28.31;40.58;99442.84;4490794;31;33732;-69
2021/08/02 10:11:49;;;;;;;3.65;1.62;;;;;;;28.30;40.58;99437.59;4493523;31;33498;-71
2021/08/02 10:14:36;;;;;;;2.80;1.77;;;;;;;28.30;40.56;99435.69;4492386;31;34710;-70
2021/08/02 10:17:08;;;;;;;4.87;1.85;;;;;;;28.31;40.59;99439.28;4478096;32;33998;-71
2021/08/02 10:19:40;;;;;;;6.68;1.80;;;;;;;28.30;40.60;99430.19;4482384;32;34193;-68
2021/08/02 10:22:09;;;;;;;8.57;2.10;;;;;;;28.30;40.62;99421.97;4482359;32;33145;-71
2021/08/02 10:24:51;;;;;;;3.10;1.90;;;;;;;28.30;40.54;99424.72;4482310;32;33887;-68
2021/08/02 10:27:29;;;;;;;4.65;2.15;;;;;;;28.34;40.51;99425.00;4494589;31;34092;-70
2021/08/02 10:30:25;;;;;;;5.53;1.83;;;;;;;28.32;40.59;99413.47;4499226;31;34192;-70
2021/08/02 10:32:56;;;;;;;3.95;1.73;;;;;;;28.34;40.59;99420.38;4499352;31;33815;-70
2021/08/02 10:35:37;;;;;;;4.15;1.60;;;;;;;28.31;40.63;99420.91;4499203;31;34042;-69
2021/08/02 10:38:15;;;;;;;3.05;1.60;;;;;;;28.34;40.63;99425.00;4499140;31;33762;-71
2021/08/02 10:40:57;;;;;;;11.48;1.90;;;;;;;28.34;40.59;99425.84;4498987;31;34726;-71
2021/08/02 10:43:29;;;;;;;5.28;2.00;;;;;;;28.34;40.63;99436.84;4497956;31;34897;-64
2021/08/02 10:45:57;;;;;;;6.75;2.08;;;;;;;28.34;40.64;99436.84;4499047;31;34122;-64
2021/08/02 10:48:25;;;;;;;5.80;1.62;;;;;;;28.34;40.61;99444.22;4500997;31;33950;-64
2021/08/02 10:50:53;;;;;;;8.38;1.87;;;;;;;28.34;40.64;99442.31;4500888;31;34756;-65
2021/08/02 10:53:21;;;;;;;4.05;1.87;;;;;;;28.35;40.63;99437.66;4501116;31;34493;-65
2021/08/02 10:55:52;;;;;;;3.05;1.65;;;;;;;28.35;40.63;99446.75;4500927;31;33518;-65
2021/08/02 10:58:29;;;;;;;7.07;1.90;;;;;;;28.36;40.64;99447.56;4500967;31;34362;-64
2021/08/02 11:00:58;;;;;;;4.35;1.67;;;;;;;28.36;40.64;99442.91;4501047;31;33841;-67
2021/08/02 11:03:29;;;;;;;7.85;2.12;;;;;;;28.37;40.66;99446.47;4501016;31;33933;-66
2021/08/02 11:06:03;;;;;;;8.30;1.98;;;;;;;28.36;40.67;99442.06;4501049;31;34688;-66
2021/08/02 11:08:34;;;;;;;6.12;1.80;;;;;;;28.36;40.74;99439.31;4499926;31;34211;-66
2021/08/02 11:11:04;;;;;;;14.13;2.20;;;;;;;28.38;40.74;99431.63;4499876;31;33411;-64
2021/08/02 11:13:31;;;;;;;5.55;2.03;;;;;;;28.38;40.65;99445.34;4501062;31;33662;-65
2021/08/02 11:15:58;;;;;;;11.20;2.10;;;;;;;28.38;40.66;99448.09;4500922;31;33983;-69
2021/08/02 11:18:27;;;;;;;15.15;2.17;;;;;;;28.38;40.67;99439.88;4500916;31;34032;-69
2021/08/02 11:20:56;;;;;;;9.13;2.40;;;;;;;28.37;40.69;99440.97;4499690;31;35124;-69
2021/08/02 11:23:36;;;;;;;9.70;3.08;;;;;;;28.38;40.72;99440.69;4497217;31;34387;-64
2021/08/02 11:26:08;;;;;;;7.57;2.17;;;;;;;28.39;40.75;99444.25;4492463;31;34791;-65
2021/08/02 11:28:37;;;;;;;6.22;1.92;;;;;;;28.38;40.82;99448.94;4500849;31;35511;-64
2021/08/02 11:31:06;;;;;;;7.45;2.15;;;;;;;28.38;40.82;99448.94;4493031;31;33499;-66
2021/08/02 11:33:38;;;;;;;10.43;1.98;;;;;;;28.39;40.76;99447.00;4515669;31;34269;-67
2021/08/02 11:36:16;;;;;;;8.63;2.85;;;;;;;28.39;40.81;99450.56;4510638;31;34658;-66
2021/08/02 11:38:44;;;;;;;8.27;1.80;;;;;;;28.40;40.85;99455.00;4493737;31;33919;-67
2021/08/02 11:41:23;;;;;;;7.60;2.22;;;;;;;28.40;40.86;99456.91;4500067;31;34585;-66
2021/08/02 11:43:51;;;;;;;7.28;2.10;;;;;;;28.42;40.87;99451.97;4491202;31;33520;-66
2021/08/02 11:46:18;;;;;;;8.27;2.28;;;;;;;28.43;40.85;99464.59;4475878;32;34946;-68